TAF KJMS
AMD KJMS 080212Z 0802/0824 VRB05KT P6SM FEW020 SCT200 TEMPO 0802/0803 -SN BKN018 FM080700 VRB04KT 3SM BR BKN011 FM081600 14009KT P6SM BKN060 FM081800 15014G24KT P6SM BKN070=
METAR KJMS
WC KJMS
WS KJMS
WV KJMS